Time;durP1;ratioP1;P1;durP2;ratioP2;P2;SDS_P1;SDS_P2;PMS_P1;PMS_P2;Temp;Humidity;BMP_temperature;BMP_pressure;BME280_temperature;BME280_humidity;BME280_pressure;Samples;Min_cycle;Max_cycle;Signal;HPM_P1;HPM_P2
2022/06/30 00:44:50;;;;;;;;;0.33;0.33;;;;;22.50;48.11;100950.84;6080050;22;45717;-84
2022/06/30 00:47:15;;;;;;;;;1.00;1.00;;;;;21.96;47.67;100863.38;5013937;28;45924;-84
2022/06/30 00:55:38;;;;;;;;;0.00;0.00;;;;;22.24;48.34;100940.53;6116540;22;45868;-84
2022/06/30 01:05:31;;;;;;;;;1.00;1.00;;;;;22.25;48.99;100946.81;5056362;28;45522;-83
2022/06/30 01:08:30;;;;;;;;;2.00;0.00;;;;;22.22;48.68;100947.06;5056588;28;46337;-85
2022/06/30 01:13:55;;;;;;;;;0.00;0.00;;;;;22.07;48.68;100935.69;5056909;28;45711;-84
2022/06/30 01:16:22;;;;;;;;;1.33;0.00;;;;;21.26;48.59;100806.22;5055834;28;45611;-84
2022/06/30 01:18:48;;;;;;;;;0.00;0.00;;;;;20.95;48.78;100742.13;5047509;28;46903;-84
2022/06/30 01:21:13;;;;;;;;;0.00;0.00;;;;;22.03;49.04;100935.13;5036201;28;46139;-84
2022/06/30 01:23:38;;;;;;;;;1.33;0.00;;;;;21.82;49.38;100907.16;5055820;28;45446;-84
2022/06/30 01:32:10;;;;;;;;;0.67;0.67;;;;;20.72;50.07;100725.19;5048372;28;45644;-84
2022/06/30 01:34:36;;;;;;;;;0.00;0.00;;;;;21.77;50.15;100906.69;5054865;28;45805;-83
2022/06/30 01:40:36;;;;;;;;;1.00;1.00;;;;;21.07;49.57;100823.25;5055240;28;45667;-84
2022/06/30 01:51:34;;;;;;;;;0.33;0.00;;;;;21.61;49.97;100920.75;6051203;22;45804;-83
2022/06/30 01:53:59;;;;;;;;;1.00;1.00;;;;;21.76;49.70;100946.56;5037558;28;48858;-83
2022/06/30 01:56:25;;;;;;;;;0.67;0.67;;;;;21.28;49.74;100882.00;5055235;28;45511;-84
2022/06/30 02:01:25;;;;;;;;;0.00;0.00;;;;;21.47;49.69;100932.84;5637738;22;45729;-84
2022/06/30 02:07:20;;;;;;;;;0.00;0.00;;;;;21.20;50.38;100911.63;5028794;28;45488;-85
2022/06/30 02:13:16;;;;;;;;;1.00;1.00;;;;;20.27;50.45;100742.50;5027556;28;45939;-84
2022/06/30 02:19:31;;;;;;;;;1.33;1.00;;;;;21.55;50.23;100932.16;5028445;28;45405;-85
2022/06/30 02:21:56;;;;;;;;;0.00;0.00;;;;;20.95;50.93;100845.09;5041702;28;45404;-84
2022/06/30 02:24:22;;;;;;;;;0.33;0.33;;;;;21.49;50.80;100930.81;5032297;28;46539;-85
2022/06/30 02:27:40;;;;;;;;;1.00;0.00;;;;;21.47;50.81;100925.56;5034630;28;45532;-84
2022/06/30 02:30:14;;;;;;;;;2.00;0.33;;;;;21.18;50.85;100876.50;5035209;28;45394;-85
2022/06/30 02:33:01;;;;;;;;;0.00;0.00;;;;;21.33;51.10;100903.28;5045366;28;45598;-84
2022/06/30 02:35:27;;;;;;;;;1.00;1.00;;;;;20.79;50.57;100832.91;5018449;28;47305;-85
2022/06/30 02:37:57;;;;;;;;;2.00;0.00;;;;;20.53;51.18;100785.44;5038439;28;45653;-84
2022/06/30 02:40:23;;;;;;;;;1.00;1.00;;;;;20.74;50.70;100831.56;5033522;28;45436;-84
2022/06/30 02:42:48;;;;;;;;;1.00;1.00;;;;;21.43;51.09;100947.66;5034034;28;45517;-84
2022/06/30 02:45:14;;;;;;;;;1.00;1.00;;;;;21.35;51.08;100923.00;5039704;28;46499;-84
2022/06/30 02:47:42;;;;;;;;;1.00;0.33;;;;;21.26;51.12;100900.28;5653231;22;46263;-85
2022/06/30 02:50:10;;;;;;;;;0.00;0.00;;;;;21.41;51.15;100925.22;5033231;28;45669;-85
2022/06/30 02:52:36;;;;;;;;;1.00;0.00;;;;;20.64;50.62;100815.22;5034804;28;45463;-85
2022/06/30 02:55:04;;;;;;;;;2.00;1.00;;;;;20.32;50.43;100764.66;5031778;28;47021;-84
2022/06/30 02:57:29;;;;;;;;;2.00;1.00;;;;;20.91;51.00;100865.31;5017072;28;45905;-84
2022/06/30 02:59:55;;;;;;;;;0.67;0.67;;;;;21.04;50.70;100893.97;5016870;28;45725;-84
2022/06/30 03:02:21;;;;;;;;;0.00;0.00;;;;;21.36;50.79;100968.13;5034810;28;45520;-84
2022/06/30 03:05:24;;;;;;;;;2.00;0.00;;;;;21.33;50.44;100950.25;5016439;28;46821;-85
2022/06/30 03:07:50;;;;;;;;;2.00;1.00;;;;;21.32;51.03;100963.94;5013189;28;45409;-83
2022/06/30 03:10:49;;;;;;;;;0.00;0.00;;;;;21.28;50.97;100960.63;5028595;28;45851;-84
2022/06/30 03:13:15;;;;;;;;;3.00;1.00;;;;;21.17;50.61;100950.69;5024748;28;46352;-84
2022/06/30 03:15:40;;;;;;;;;1.33;1.00;;;;;20.00;51.17;100767.34;5033800;28;45430;-84
2022/06/30 03:18:05;;;;;;;;;2.00;1.00;;;;;20.66;50.62;100868.28;5031408;28;45455;-84
2022/06/30 03:20:31;;;;;;;;;1.00;1.00;;;;;21.02;51.45;100920.31;5034035;28;45587;-84
2022/06/30 03:22:56;;;;;;;;;1.00;1.00;;;;;21.25;51.08;100956.31;5034653;28;45565;-85
2022/06/30 03:28:43;;;;;;;;;1.00;1.00;;;;;20.04;50.58;100766.06;5033036;28;48182;-85
2022/06/30 03:31:09;;;;;;;;;1.67;1.67;;;;;21.20;51.00;100971.28;5051467;22;45472;-84
2022/06/30 03:33:49;;;;;;;;;4.00;4.00;;;;;21.13;51.34;100953.81;5052330;28;45430;-84
2022/06/30 03:36:15;;;;;;;;;1.00;1.00;;;;;21.28;50.87;100968.75;5037299;28;48115;-84
2022/06/30 03:38:40;;;;;;;;;1.00;1.00;;;;;20.32;50.71;100797.13;5052576;28;45410;-84
2022/06/30 03:41:06;;;;;;;;;1.33;1.00;;;;;20.66;50.85;100853.88;5053948;28;45463;-84
2022/06/30 03:43:31;;;;;;;;;1.00;1.00;;;;;20.41;50.58;100804.44;5043140;28;45475;-84
2022/06/30 03:45:56;;;;;;;;;1.67;1.00;;;;;21.29;50.62;100955.06;5053721;28;47030;-84
2022/06/30 03:48:22;;;;;;;;;1.33;1.00;;;;;20.78;50.59;100881.78;5045741;28;45491;-85
2022/06/30 03:50:47;;;;;;;;;2.00;1.00;;;;;20.53;50.86;100850.44;5049997;28;45878;-84
2022/06/30 03:53:12;;;;;;;;;1.00;1.00;;;;;20.73;50.95;100886.72;5054836;28;45521;-84
2022/06/30 03:55:39;;;;;;;;;0.33;0.33;;;;;21.28;51.11;100969.63;5043122;28;46163;-83
2022/06/30 03:58:06;;;;;;;;;1.00;1.00;;;;;20.85;51.11;100894.66;5053496;28;45444;-85
2022/06/30 04:00:34;;;;;;;;;0.00;0.00;;;;;20.39;50.65;100821.81;5047156;28;46270;-84
2022/06/30 04:03:00;;;;;;;;;0.00;0.00;;;;;21.29;50.89;101003.88;5053739;28;45557;-84
2022/06/30 04:05:25;;;;;;;;;1.00;1.00;;;;;20.69;50.47;100890.69;5053239;28;47127;-84
2022/06/30 04:14:34;;;;;;;;;0.67;0.67;;;;;20.82;51.12;100930.16;5047880;28;46131;-84
2022/06/30 04:17:00;;;;;;;;;2.00;1.00;;;;;20.26;50.74;100819.28;5054077;28;45434;-85
2022/06/30 04:19:26;;;;;;;;;2.00;1.00;;;;;21.22;51.22;100989.13;5043026;28;45481;-84
2022/06/30 04:21:52;;;;;;;;;1.00;1.00;;;;;20.48;52.23;100860.81;5053197;28;45784;-84
2022/06/30 04:24:43;;;;;;;;;2.00;2.00;;;;;19.75;53.56;100739.59;5046841;28;45602;-84
2022/06/30 04:27:48;;;;;;;;;3.00;2.00;;;;;21.18;53.76;100970.53;5050565;28;45470;-84
2022/06/30 04:30:14;;;;;;;;;1.00;0.00;;;;;19.91;54.97;100768.09;5048839;28;45671;-83
2022/06/30 04:32:52;;;;;;;;;1.00;1.00;;;;;21.16;54.18;100983.34;5051750;28;45383;-84
2022/06/30 04:35:34;;;;;;;;;2.00;2.00;;;;;20.04;54.44;100787.72;5053135;28;45416;-84
2022/06/30 04:48:05;;;;;;;;;1.33;1.00;;;;;20.98;54.93;100993.91;5049619;28;45507;-84
2022/06/30 04:50:31;;;;;;;;;1.33;1.33;;;;;20.13;55.00;100867.28;5051947;28;46051;-84
2022/06/30 04:52:56;;;;;;;;;1.00;1.00;;;;;20.17;56.11;100861.50;5056823;28;45391;-84
2022/06/30 04:55:22;;;;;;;;;2.00;1.00;;;;;20.84;56.24;100957.13;5046241;28;45306;-85
2022/06/30 04:58:28;;;;;;;;;3.00;3.00;;;;;20.95;56.07;100972.47;5054772;28;45384;-84
2022/06/30 05:00:54;;;;;;;;;1.00;1.00;;;;;20.88;56.92;100969.41;5047043;28;46400;-83
2022/06/30 05:03:20;;;;;;;;;3.00;2.00;;;;;20.56;56.43;100915.22;5037368;28;45384;-84
2022/06/30 05:08:13;;;;;;;;;2.00;2.00;;;;;20.93;56.25;100958.19;5035764;28;46689;-84
2022/06/30 05:10:39;;;;;;;;;5.00;2.00;;;;;20.31;56.36;100873.91;5036034;28;46966;-84
2022/06/30 05:13:07;;;;;;;;;1.33;1.33;;;;;20.92;56.38;100972.75;5032936;28;48541;-84
2022/06/30 05:15:35;;;;;;;;;2.33;2.33;;;;;20.38;56.83;100875.09;5035984;28;45513;-83
2022/06/30 05:18:00;;;;;;;;;1.00;1.00;;;;;20.88;55.77;100942.31;5034688;28;45553;-84
2022/06/30 05:20:26;;;;;;;;;1.00;1.00;;;;;20.79;56.09;100929.53;5035696;28;46031;-85
2022/06/30 05:22:51;;;;;;;;;2.33;2.00;;;;;20.89;55.46;100957.59;5035556;28;45502;-84
2022/06/30 05:28:01;;;;;;;;;1.33;1.00;;;;;20.52;55.70;100883.94;5036343;28;45479;-84
2022/06/30 05:30:26;;;;;;;;;2.00;2.00;;;;;20.65;55.81;100917.19;5027621;28;48114;-83
2022/06/30 05:32:52;;;;;;;;;2.00;2.00;;;;;20.83;56.36;100953.53;5034865;28;45555;-83
2022/06/30 05:35:17;;;;;;;;;0.67;0.67;;;;;20.61;55.67;100921.97;5036604;28;45647;-82
2022/06/30 05:37:52;;;;;;;;;2.00;2.00;;;;;20.70;54.53;100960.09;5033516;28;45376;-86
2022/06/30 05:40:48;;;;;;;;;3.00;1.33;;;;;20.84;54.80;100981.50;5032715;28;47160;-87
2022/06/30 05:43:15;;;;;;;;;1.33;1.33;;;;;20.85;54.36;100973.25;5029052;28;45448;-84
2022/06/30 05:45:42;;;;;;;;;1.00;1.00;;;;;20.33;54.60;100888.16;5043735;28;45507;-84
2022/06/30 05:52:02;;;;;;;;;2.67;1.00;;;;;19.63;54.03;100801.91;5023050;22;45572;-86
2022/06/30 05:57:48;;;;;;;;;2.00;2.00;;;;;20.69;54.84;100990.91;4992688;22;45657;-85
2022/06/30 06:00:14;;;;;;;;;1.67;1.33;;;;;19.77;55.06;100837.69;5005718;28;45706;-85
2022/06/30 06:07:52;;;;;;;;;1.00;1.00;;;;;19.38;56.23;100769.59;5466120;22;47066;-84
2022/06/30 06:10:18;;;;;;;;;1.33;1.00;;;;;19.93;55.36;100853.56;5041174;28;45492;-84
2022/06/30 06:12:46;;;;;;;;;1.00;1.00;;;;;19.42;55.26;100772.06;5035978;28;46249;-85
2022/06/30 06:15:13;;;;;;;;;2.00;2.00;;;;;19.90;56.24;100839.41;5035383;28;45749;-84
2022/06/30 06:17:46;;;;;;;;;2.33;2.33;;;;;20.35;55.83;100932.22;5041107;28;45452;-83
2022/06/30 06:20:13;;;;;;;;;5.33;4.33;;;;;20.39;56.53;100933.69;5023071;28;45390;-84
2022/06/30 06:22:39;;;;;;;;;2.00;1.00;;;;;20.35;56.20;100929.50;5040248;28;46657;-84
2022/06/30 06:30:37;;;;;;;;;3.00;3.00;;;;;20.78;55.61;100984.72;5071677;28;45402;-84
2022/06/30 06:33:03;;;;;;;;;3.00;2.00;;;;;20.55;55.61;100944.09;5058043;28;45389;-84
2022/06/30 06:35:30;;;;;;;;;2.00;2.00;;;;;20.55;55.61;100943.25;5066921;28;45506;-84
2022/06/30 06:37:56;;;;;;;;;1.00;1.00;;;;;20.86;56.56;100982.22;5072636;28;45451;-84
2022/06/30 06:40:21;;;;;;;;;4.33;2.00;;;;;20.91;56.07;100992.69;5071199;28;45474;-84
2022/06/30 06:42:47;;;;;;;;;1.33;1.33;;;;;20.43;57.72;100920.75;5063233;28;45713;-83
2022/06/30 06:45:12;;;;;;;;;1.00;1.00;;;;;20.69;56.05;100969.22;5069986;28;45474;-84
2022/06/30 06:47:37;;;;;;;;;2.00;2.00;;;;;20.92;57.01;101011.53;5062657;28;45558;-83
2022/06/30 06:50:04;;;;;;;;;1.00;1.00;;;;;20.89;55.76;101005.53;5057863;28;45487;-84
2022/06/30 06:52:29;;;;;;;;;3.00;2.00;;;;;20.89;56.57;101009.09;5068276;28;46299;-84
2022/06/30 06:54:55;;;;;;;;;2.00;2.00;;;;;20.67;56.15;100974.75;5064679;28;51666;-84
2022/06/30 06:57:20;;;;;;;;;3.67;2.00;;;;;20.86;55.78;101006.59;5070407;28;45412;-83
2022/06/30 06:59:45;;;;;;;;;2.67;2.00;;;;;20.97;55.98;101025.56;5069064;28;45887;-85
2022/06/30 07:02:11;;;;;;;;;2.00;1.00;;;;;20.60;55.89;100966.31;5071819;28;46085;-84
2022/06/30 07:04:39;;;;;;;;;1.00;1.00;;;;;20.81;55.64;101015.16;5070500;28;45376;-84
2022/06/30 07:07:05;;;;;;;;;2.67;1.00;;;;;20.95;56.38;101035.66;5060871;28;45442;-83
2022/06/30 07:09:30;;;;;;;;;3.00;1.00;;;;;20.63;56.97;100992.28;5069011;28;45485;-83
2022/06/30 07:11:56;;;;;;;;;6.33;5.33;;;;;20.95;56.97;101054.63;5068871;28;46225;-83
2022/06/30 07:14:21;;;;;;;;;2.00;2.00;;;;;20.97;57.00;101046.38;5053300;28;45499;-85
2022/06/30 07:16:47;;;;;;;;;3.00;2.00;;;;;20.97;57.17;101057.22;5061287;28;45416;-84
2022/06/30 07:19:12;;;;;;;;;2.00;2.00;;;;;20.88;57.73;101037.16;5051531;28;45534;-85
2022/06/30 07:21:38;;;;;;;;;2.67;2.67;;;;;20.85;56.85;101038.25;5280027;22;45775;-86
2022/06/30 07:24:03;;;;;;;;;2.00;2.00;;;;;20.93;58.14;101050.31;5034257;28;45450;-85
2022/06/30 07:26:28;;;;;;;;;2.00;2.00;;;;;20.80;57.71;101026.94;5036501;28;45456;-85
2022/06/30 07:28:54;;;;;;;;;3.00;1.33;;;;;20.54;58.61;100993.84;5032268;28;45436;-85
2022/06/30 07:31:20;;;;;;;;;3.67;3.33;;;;;20.76;59.43;101033.59;5037768;28;45396;-85
2022/06/30 07:33:46;;;;;;;;;2.00;2.00;;;;;20.84;58.71;101055.53;5033243;28;45404;-84
2022/06/30 07:36:12;;;;;;;;;3.00;3.00;;;;;20.75;59.32;101036.47;5030066;28;45541;-84
2022/06/30 07:38:40;;;;;;;;;1.33;1.33;;;;;20.78;59.65;101047.88;5038380;28;45526;-84
2022/06/30 07:41:05;;;;;;;;;1.33;1.33;;;;;20.78;60.01;101045.19;5030811;28;46527;-84
2022/06/30 07:43:30;;;;;;;;;3.67;3.67;;;;;20.79;60.10;101046.03;5038195;28;45506;-84
2022/06/30 07:45:58;;;;;;;;;3.33;2.33;;;;;20.49;60.99;100987.97;5031615;28;45900;-83
2022/06/30 07:48:24;;;;;;;;;1.00;1.00;;;;;20.61;60.46;101007.78;5039260;28;45511;-84
2022/06/30 07:50:49;;;;;;;;;4.00;2.33;;;;;20.76;60.13;101030.03;5038265;28;45594;-83
2022/06/30 07:53:14;;;;;;;;;3.33;3.33;;;;;20.63;59.93;101012.09;5034849;28;45724;-84
2022/06/30 07:55:40;;;;;;;;;1.67;1.00;;;;;20.74;60.21;101041.00;5036771;28;45596;-84
2022/06/30 07:58:05;;;;;;;;;5.33;2.33;;;;;20.58;60.24;101024.28;5036199;28;45725;-84
2022/06/30 08:03:06;;;;;;;;;1.33;1.00;;;;;20.49;60.29;101012.31;5862628;22;45613;-83
2022/06/30 08:05:31;;;;;;;;;3.00;2.00;;;;;20.20;60.67;100980.31;5296302;22;45556;-83
2022/06/30 08:12:03;;;;;;;;;2.00;2.00;;;;;20.54;59.76;101041.75;5016629;28;45534;-82
2022/06/30 08:14:29;;;;;;;;;2.00;2.00;;;;;19.75;60.15;100909.13;5031056;28;45404;-83
2022/06/30 08:16:54;;;;;;;;;4.00;2.00;;;;;19.54;60.37;100877.38;5037010;28;45372;-84
2022/06/30 08:19:19;;;;;;;;;2.00;1.67;;;;;20.31;59.78;101013.81;5036984;28;45439;-83
2022/06/30 08:21:46;;;;;;;;;1.67;1.00;;;;;20.34;61.32;101016.25;5036867;28;45757;-83
2022/06/30 08:24:11;;;;;;;;;2.00;2.00;;;;;20.42;60.34;101035.47;5035132;28;45670;-83
2022/06/30 08:26:58;;;;;;;;;3.00;1.33;;;;;20.38;61.00;101048.38;5033092;28;53633;-89
2022/06/30 08:36:41;;;;;;;;;3.00;1.00;;;;;20.27;59.80;101024.00;5028238;28;45585;-87
2022/06/30 08:42:07;;;;;;;;;3.00;1.67;;;;;19.26;59.84;100864.31;5039195;28;45558;-87
2022/06/30 08:53:30;;;;;;;;;1.00;1.00;;;;;20.23;61.27;101027.97;5686779;22;45459;-87
2022/06/30 08:55:56;;;;;;;;;1.00;1.00;;;;;19.10;60.74;100824.13;5057766;28;47496;-85
2022/06/30 08:58:43;;;;;;;;;2.00;1.00;;;;;19.79;61.21;100921.44;5053930;28;45541;-83
2022/06/30 09:01:47;;;;;;;;;0.33;0.33;;;;;19.84;60.10;100926.47;5051490;28;45575;-85
2022/06/30 09:04:38;;;;;;;;;1.33;1.00;;;;;20.28;60.29;100992.41;5055162;28;45749;-86
2022/06/30 09:09:39;;;;;;;;;2.33;1.00;;;;;19.75;60.60;100915.41;5538921;22;45475;-83
2022/06/30 09:12:19;;;;;;;;;2.00;2.00;;;;;20.11;60.96;100967.56;5026183;28;45483;-89
2022/06/30 09:23:43;;;;;;;;;1.33;1.33;;;;;20.21;58.53;100984.78;5336572;22;45568;-84
2022/06/30 09:26:16;;;;;;;;;1.00;1.00;;;;;18.93;60.84;100791.19;5056864;28;45522;-87
2022/06/30 09:29:02;;;;;;;;;1.00;1.00;;;;;18.92;60.58;100789.47;5070667;28;46123;-87
2022/06/30 09:31:46;;;;;;;;;1.00;1.00;;;;;19.58;60.58;100900.47;5148651;22;45421;-85
2022/06/30 09:34:25;;;;;;;;;1.00;1.00;;;;;20.23;61.09;101017.16;5061990;28;45585;-93
2022/06/30 09:36:53;;;;;;;;;3.00;2.00;;;;;19.35;60.13;100877.09;5049790;28;45463;-85
2022/06/30 09:42:37;;;;;;;;;3.67;3.67;;;;;20.15;60.18;101030.41;5053890;22;71827;-85
2022/06/30 09:45:04;;;;;;;;;1.67;1.00;;;;;19.92;60.61;100994.34;5062729;28;45654;-85
2022/06/30 09:47:30;;;;;;;;;1.33;1.33;;;;;19.34;60.76;100894.31;5044610;28;45455;-86
2022/06/30 09:50:01;;;;;;;;;2.00;1.00;;;;;20.14;61.03;101032.25;5061479;28;45701;-85
2022/06/30 09:52:27;;;;;;;;;1.00;1.00;;;;;19.12;59.61;100866.25;5061688;28;46273;-84
2022/06/30 09:55:14;;;;;;;;;2.00;1.00;;;;;20.07;60.38;101025.63;5066928;28;45846;-85
2022/06/30 09:58:09;;;;;;;;;1.00;1.00;;;;;18.81;60.63;100831.78;5058213;28;45601;-90
2022/06/30 10:04:17;;;;;;;;;1.00;1.00;;;;;20.04;60.81;101036.66;5046071;28;45868;-85
2022/06/30 10:21:31;;;;;;;;;2.00;2.00;;;;;19.98;60.86;101046.13;5178286;22;45478;-87
2022/06/30 10:24:00;;;;;;;;;2.00;2.00;;;;;19.01;62.49;100895.06;5059284;28;45733;-84
2022/06/30 10:29:17;;;;;;;;;1.00;1.00;;;;;18.74;63.05;100845.72;5065798;28;45501;-85
2022/06/30 10:34:56;;;;;;;;;3.00;1.33;;;;;19.93;62.37;101052.91;5068430;27;46413;-83
2022/06/30 10:37:27;;;;;;;;;2.00;1.00;;;;;20.00;62.85;101079.34;5065336;27;45419;-86
2022/06/30 10:40:03;;;;;;;;;1.33;1.33;;;;;18.59;63.17;100830.72;5069932;28;45802;-85
2022/06/30 10:43:01;;;;;;;;;143.00;124.00;;;;;20.00;63.62;101070.38;5067339;28;45436;-87
2022/06/30 10:45:27;;;;;;;;;0.33;0.33;;;;;19.99;63.14;101072.22;5070033;28;45761;-86
2022/06/30 10:48:08;;;;;;;;;6.00;2.00;;;;;19.40;63.99;100983.88;5069933;28;45404;-85
2022/06/30 10:51:12;;;;;;;;;2.33;2.33;;;;;19.89;64.82;101076.63;5069316;28;45359;-87
2022/06/30 10:53:38;;;;;;;;;2.00;2.00;;;;;19.89;64.46;101076.63;5054779;28;45538;-86
2022/06/30 10:56:04;;;;;;;;;2.33;2.33;;;;;19.90;64.30;101093.69;5072497;28;46255;-86
2022/06/30 10:58:30;;;;;;;;;2.00;2.00;;;;;18.66;64.62;100882.38;5069559;27;45522;-86
2022/06/30 11:01:02;;;;;;;;;3.33;2.67;;;;;19.90;64.63;101101.81;5071294;28;48631;-88
2022/06/30 11:03:34;;;;;;;;;3.00;2.00;;;;;19.95;63.85;101099.66;5070032;28;45542;-83
2022/06/30 11:06:07;;;;;;;;;1.00;1.00;;;;;19.51;63.19;101026.31;5070968;22;45454;-89
2022/06/30 11:08:36;;;;;;;;;4.00;2.00;;;;;20.00;63.63;101102.84;5038131;28;45440;-86
2022/06/30 11:11:25;;;;;;;;;4.67;2.00;;;;;20.05;64.32;101105.19;5043358;28;45587;-88
2022/06/30 11:14:03;;;;;;;;;1.67;1.67;;;;;20.02;64.11;101096.34;5041323;28;45528;-83
2022/06/30 11:16:48;;;;;;;;;2.00;1.00;;;;;20.00;63.12;101110.97;5040448;28;46170;-84
2022/06/30 11:21:44;;;;;;;;;0.00;0.00;;;;;18.81;61.83;100904.72;5020807;28;45608;-86
2022/06/30 11:24:14;;;;;;;;;1.33;1.33;;;;;19.11;62.97;100937.50;5023471;28;45735;-80
2022/06/30 11:29:28;;;;;;;;;2.00;1.00;;;;;19.99;63.17;101066.81;5025915;28;45458;-82
2022/06/30 11:32:07;;;;;;;;;1.00;1.00;;;;;20.15;62.75;101079.13;5030127;28;46166;-82
2022/06/30 11:34:37;;;;;;;;;2.00;1.00;;;;;20.18;63.46;101071.63;5028706;28;45599;-83
2022/06/30 11:37:02;;;;;;;;;2.00;1.00;;;;;19.30;62.45;100926.13;5021319;28;46695;-83
2022/06/30 11:39:47;;;;;;;;;1.00;1.00;;;;;19.39;63.59;100954.28;5031827;28;46042;-83
2022/06/30 11:45:43;;;;;;;;;1.67;1.67;;;;;19.72;63.60;101006.75;5064360;22;45500;-85
2022/06/30 11:48:28;;;;;;;;;1.00;1.00;;;;;19.13;63.86;100916.63;5051357;28;48198;-84
2022/06/30 11:50:53;;;;;;;;;2.00;2.00;;;;;19.56;63.55;100980.00;5071493;28;45505;-79
2022/06/30 11:53:30;;;;;;;;;0.33;0.33;;;;;18.63;63.51;100842.97;5047814;28;45832;-82
2022/06/30 11:55:56;;;;;;;;;1.33;0.33;;;;;20.08;63.12;101057.09;5057430;28;45445;-81
2022/06/30 11:58:28;;;;;;;;;0.00;0.00;;;;;19.99;63.19;101034.34;5052134;28;45996;-82
2022/06/30 12:00:54;;;;;;;;;0.00;0.00;;;;;20.26;62.80;101056.63;5055094;28;45747;-81
2022/06/30 12:03:22;;;;;;;;;0.00;0.00;;;;;20.41;63.18;101049.97;5056371;28;45554;-83
2022/06/30 12:05:53;;;;;;;;;0.00;0.00;;;;;20.34;61.59;101013.56;5049883;28;45328;-83
2022/06/30 12:08:19;;;;;;;;;2.00;0.33;;;;;20.71;62.45;101025.00;5053920;28;46385;-79
2022/06/30 12:10:47;;;;;;;;;2.00;1.00;;;;;20.30;60.85;100917.31;5046608;28;45644;-81
2022/06/30 12:15:50;;;;;;;;;0.00;0.00;;;;;20.59;58.83;100920.38;5291088;22;45324;-82
2022/06/30 12:18:27;;;;;;;;;0.00;0.00;;;;;20.43;58.43;100880.13;5046802;28;47265;-81
2022/06/30 12:20:53;;;;;;;;;0.00;0.00;;;;;20.61;58.46;100916.56;5053269;28;45767;-82
2022/06/30 12:23:27;;;;;;;;;1.00;1.00;;;;;20.91;58.64;100992.69;5054456;28;45707;-84
2022/06/30 12:25:55;;;;;;;;;1.33;0.00;;;;;20.51;57.32;100949.91;5048809;28;45392;-82
2022/06/30 12:28:23;;;;;;;;;0.00;0.00;;;;;21.39;57.76;101117.84;5049137;28;46053;-84
2022/06/30 12:30:53;;;;;;;;;0.00;0.00;;;;;19.83;56.68;100858.00;5043509;28;45480;-87
2022/06/30 12:33:19;;;;;;;;;1.33;0.00;;;;;20.60;56.60;101008.75;5044510;28;45453;-84
2022/06/30 12:35:44;;;;;;;;;28.00;22.00;;;;;21.10;56.43;101095.88;5049530;28;45564;-84
2022/06/30 12:38:32;;;;;;;;;1.00;0.00;;;;;20.92;56.18;101060.31;5045122;28;47065;-85
2022/06/30 12:41:12;;;;;;;;;0.00;0.00;;;;;20.68;56.30;101027.13;5052166;28;46365;-88
2022/06/30 12:43:56;;;;;;;;;0.00;0.00;;;;;20.69;57.05;101023.41;5054092;28;45536;-84
2022/06/30 12:46:21;;;;;;;;;0.67;0.67;;;;;20.34;56.85;100954.84;5052901;28;45663;-84
2022/06/30 12:48:53;;;;;;;;;0.67;0.67;;;;;21.08;57.43;101068.03;5055893;28;45422;-82
2022/06/30 12:51:28;;;;;;;;;0.00;0.00;;;;;21.07;56.68;101083.44;5048171;28;45431;-82
2022/06/30 12:54:04;;;;;;;;;1.00;1.00;;;;;21.11;57.08;101089.44;5049777;28;46327;-85
2022/06/30 12:56:29;;;;;;;;;1.00;1.00;;;;;21.04;56.01;101082.81;5052262;28;45903;-86
2022/06/30 12:59:08;;;;;;;;;1.00;1.00;;;;;20.90;56.81;101062.28;5051020;28;47224;-89
2022/06/30 13:01:52;;;;;;;;;1.00;1.00;;;;;20.29;57.24;100964.34;5053330;28;47359;-89
2022/06/30 13:04:20;;;;;;;;;1.00;1.00;;;;;20.71;57.55;101026.84;5048291;28;45617;-85
2022/06/30 13:06:56;;;;;;;;;0.00;0.00;;;;;21.17;56.67;101101.66;5047550;28;45556;-85
2022/06/30 13:09:24;;;;;;;;;0.00;0.00;;;;;20.38;55.69;100955.47;5041286;28;46006;-86
2022/06/30 13:11:53;;;;;;;;;0.00;0.00;;;;;21.22;55.17;101080.44;5051322;28;46118;-89
2022/06/30 13:14:21;;;;;;;;;0.00;0.00;;;;;20.48;56.65;100951.00;5049248;28;45466;-82
2022/06/30 13:16:48;;;;;;;;;1.00;0.00;;;;;20.77;55.55;101001.97;5055409;28;45483;-81
2022/06/30 13:19:15;;;;;;;;;0.00;0.00;;;;;21.23;56.39;101060.47;5050865;28;47076;-81
2022/06/30 13:21:41;;;;;;;;;0.00;0.00;;;;;21.36;54.63;101072.00;5054855;28;45651;-84
2022/06/30 13:24:07;;;;;;;;;2.00;0.67;;;;;21.45;54.10;101084.81;5054411;28;45478;-84
2022/06/30 13:26:33;;;;;;;;;0.00;0.00;;;;;21.53;54.80;101097.75;5055568;28;45514;-81
2022/06/30 13:28:59;;;;;;;;;0.00;0.00;;;;;21.44;54.88;101074.09;5056851;28;46119;-81
2022/06/30 13:31:24;;;;;;;;;2.00;0.33;;;;;21.43;54.48;101069.69;5054472;28;45550;-81
2022/06/30 13:33:50;;;;;;;;;1.00;1.00;;;;;20.87;54.54;100976.69;5052246;28;45389;-82
2022/06/30 13:36:19;;;;;;;;;1.67;0.33;;;;;21.49;53.61;101074.56;5048279;28;45456;-81
2022/06/30 14:55:20;;;;;;;;;1.00;1.00;;;;;21.57;50.65;101055.81;5096286;27;45693;-88
2022/06/30 14:57:46;;;;;;;;;2.00;1.00;;;;;21.92;50.06;101089.91;5086328;27;46530;-81
2022/06/30 15:00:15;;;;;;;;;0.67;0.67;;;;;21.91;49.51;101066.47;5083620;27;46405;-82
2022/06/30 15:02:43;;;;;;;;;0.00;0.00;;;;;22.00;50.71;101087.38;5086174;27;45815;-83
2022/06/30 15:05:09;;;;;;;;;2.00;1.00;;;;;21.91;50.36;101066.47;5088163;27;45529;-79
2022/06/30 15:07:34;;;;;;;;;0.00;0.00;;;;;21.59;48.52;101020.41;5082959;27;45728;-86
2022/06/30 15:10:01;;;;;;;;;1.00;1.00;;;;;21.81;49.98;101050.13;5087431;27;45640;-84
2022/06/30 15:12:26;;;;;;;;;0.00;0.00;;;;;22.12;49.15;101099.03;5088184;27;45526;-88
2022/06/30 15:14:51;;;;;;;;;0.67;0.00;;;;;22.01;50.06;101086.41;5097586;27;46312;-88
2022/06/30 15:17:17;;;;;;;;;1.00;1.00;;;;;22.05;49.68;101098.69;5095383;27;45418;-87
2022/06/30 15:19:44;;;;;;;;;1.00;1.00;;;;;21.82;50.12;101059.13;5095730;27;45395;-86
2022/06/30 15:24:54;;;;;;;;;0.00;0.00;;;;;20.97;49.54;100919.00;5090611;27;45923;-85
2022/06/30 15:27:19;;;;;;;;;1.67;1.00;;;;;21.55;49.83;101002.69;5084962;27;45479;-85
2022/06/30 15:29:47;;;;;;;;;3.00;1.00;;;;;22.15;49.98;101077.06;5086157;27;46385;-84
2022/06/30 15:32:17;;;;;;;;;4.00;2.00;;;;;22.04;49.13;101060.84;5087606;27;45688;-90
2022/06/30 15:34:43;;;;;;;;;0.33;0.33;;;;;21.81;48.53;101022.13;5102067;27;47250;-90
2022/06/30 15:37:08;;;;;;;;;0.00;0.00;;;;;22.02;49.68;101047.41;5090128;27;45901;-89
2022/06/30 15:39:34;;;;;;;;;0.00;0.00;;;;;21.98;48.80;101036.94;5206074;22;45708;-86
2022/06/30 15:41:59;;;;;;;;;0.00;0.00;;;;;21.66;48.61;100981.78;5088124;27;45444;-83
2022/06/30 15:44:25;;;;;;;;;9.33;9.33;;;;;22.14;49.70;101059.88;5091085;27;46433;-86
2022/06/30 15:46:51;;;;;;;;;21.00;18.00;;;;;21.85;49.24;101048.00;5091171;27;45481;-89
2022/06/30 15:49:16;;;;;;;;;1.33;1.00;;;;;21.79;49.53;101054.81;5088842;27;45825;-90
2022/06/30 15:51:42;;;;;;;;;3.00;2.00;;;;;21.93;50.51;101069.91;5092266;27;45381;-87
2022/06/30 15:54:07;;;;;;;;;1.67;0.00;;;;;21.99;50.20;101065.81;5089537;27;46101;-89
2022/06/30 15:56:46;;;;;;;;;0.33;0.33;;;;;21.74;49.45;101023.66;5077210;27;45386;-88
2022/06/30 15:59:12;;;;;;;;;1.00;1.00;;;;;21.65;48.85;101011.72;5053382;28;45679;-92
2022/06/30 16:01:47;;;;;;;;;0.33;0.33;;;;;20.97;48.79;100897.31;5050427;28;45701;-92
2022/06/30 16:04:13;;;;;;;;;1.00;1.00;;;;;20.84;48.54;100879.41;5048561;28;45869;-93
2022/06/30 16:06:41;;;;;;;;;2.33;2.00;;;;;22.00;49.56;101060.25;5047233;28;45409;-90
2022/06/30 16:09:09;;;;;;;;;1.00;1.00;;;;;21.41;50.17;100961.31;5051067;28;45492;-92
2022/06/30 16:11:35;;;;;;;;;0.00;0.00;;;;;21.99;49.60;101046.81;5054805;28;45390;-90
2022/06/30 16:14:04;;;;;;;;;1.00;1.00;;;;;21.55;50.09;100967.41;5051186;28;46451;-94
2022/06/30 16:16:30;;;;;;;;;1.00;1.00;;;;;21.98;50.20;101043.22;5037616;28;45383;-89
2022/06/30 16:19:01;;;;;;;;;0.00;0.00;;;;;21.75;49.78;101007.25;5052592;28;45537;-92
2022/06/30 16:21:27;;;;;;;;;0.00;0.00;;;;;21.10;49.61;100908.84;5053718;28;45575;-90
2022/06/30 16:23:54;;;;;;;;;2.00;0.00;;;;;20.76;49.70;100832.28;5053412;28;45900;-96
2022/06/30 16:26:38;;;;;;;;;;;;;;;;;;;;;
2022/06/30 16:29:04;;;;;;;;;1.00;1.00;;;;;21.69;51.07;101002.34;5081267;27;68968;-89